Time;durP1;ratioP1;P1;durP2;ratioP2;P2;SDS_P1;SDS_P2;PMS_P1;PMS_P2;Temp;Humidity;BMP_temperature;BMP_pressure;BME280_temperature;BME280_humidity;BME280_pressure;Samples;Min_cycle;Max_cycle;Signal;HPM_P1;HPM_P2
2022/06/14 00:00:53;;;;;;;7.13;1.52;;;13.80;93.40;;;;;;7342502;19;107909;-85
2022/06/14 00:03:32;;;;;;;4.40;1.60;;;13.70;93.60;;;;;;7341586;19;107264;-85
2022/06/14 00:06:21;;;;;;;4.47;1.50;;;13.70;93.80;;;;;;7341596;19;108167;-85
2022/06/14 00:08:49;;;;;;;9.57;1.60;;;13.60;93.90;;;;;;7340667;19;108222;-85
2022/06/14 00:11:21;;;;;;;4.43;1.50;;;13.60;93.80;;;;;;7336451;19;108399;-86
2022/06/14 00:13:51;;;;;;;7.13;1.77;;;13.60;94.10;;;;;;7339779;19;109179;-85
2022/06/14 00:16:19;;;;;;;6.10;1.67;;;13.70;94.10;;;;;;7339279;19;107770;-85
2022/06/14 00:18:46;;;;;;;4.57;1.73;;;13.70;94.20;;;;;;7339728;19;107826;-86
2022/06/14 00:21:14;;;;;;;5.30;1.55;;;13.60;94.30;;;;;;7345295;19;108979;-85
2022/06/14 00:23:42;;;;;;;4.00;1.20;;;13.60;94.20;;;;;;7340872;19;107277;-86
2022/06/14 00:26:11;;;;;;;4.13;1.60;;;13.60;94.20;;;;;;7343018;19;109472;-86
2022/06/14 00:28:41;;;;;;;7.00;1.60;;;13.60;94.30;;;;;;7339710;19;107931;-85
2022/06/14 00:31:14;;;;;;;5.38;1.50;;;13.50;94.50;;;;;;7341596;19;108595;-86
2022/06/14 00:33:42;;;;;;;6.07;1.80;;;13.50;94.70;;;;;;7338920;19;108920;-85
2022/06/14 00:36:24;;;;;;;6.47;2.10;;;13.40;95.00;;;;;;7340446;19;108584;-85
2022/06/14 00:38:51;;;;;;;10.52;1.70;;;13.30;95.50;;;;;;7340924;19;108727;-85
2022/06/14 00:41:37;;;;;;;4.88;1.60;;;13.20;95.60;;;;;;7341993;19;111928;-85
2022/06/14 00:44:07;;;;;;;4.18;1.45;;;13.20;95.40;;;;;;7347505;19;107978;-86
2022/06/14 00:46:51;;;;;;;2.97;1.55;;;13.20;95.40;;;;;;7339396;19;109281;-85
2022/06/14 00:49:24;;;;;;;7.28;1.50;;;13.20;95.30;;;;;;7341168;19;108252;-85
2022/06/14 00:51:59;;;;;;;5.22;1.40;;;13.20;95.30;;;;;;7341513;19;111930;-85
2022/06/14 00:54:36;;;;;;;6.40;2.00;;;13.20;95.50;;;;;;7342339;19;108373;-86
2022/06/14 00:57:05;;;;;;;7.10;2.58;;;13.00;96.00;;;;;;7348390;19;109428;-86
2022/06/14 00:59:44;;;;;;;5.90;2.13;;;13.00;96.10;;;;;;7348139;19;108248;-86
2022/06/14 01:02:20;;;;;;;3.67;1.83;;;12.90;95.90;;;;;;7347870;19;107796;-86
2022/06/14 01:04:48;;;;;;;4.15;2.15;;;13.00;95.80;;;;;;7347799;19;107906;-86
2022/06/14 01:07:28;;;;;;;5.40;2.20;;;13.00;95.90;;;;;;7346415;19;107708;-84
2022/06/14 01:10:06;;;;;;;5.85;1.73;;;12.90;95.90;;;;;;7340470;19;108093;-85
2022/06/14 01:12:39;;;;;;;5.75;1.60;;;12.90;95.80;;;;;;7341907;19;107912;-84
2022/06/14 01:15:23;;;;;;;5.78;2.30;;;12.90;96.00;;;;;;7341013;19;109251;-85
2022/06/14 01:17:53;;;;;;;3.53;1.80;;;12.80;96.70;;;;;;7341942;19;108262;-85
2022/06/14 01:20:22;;;;;;;6.95;1.80;;;12.60;96.60;;;;;;7345090;19;108650;-86
2022/06/14 01:22:51;;;;;;;5.55;1.95;;;12.70;96.40;;;;;;7346720;19;108129;-85
2022/06/14 01:25:19;;;;;;;6.15;2.03;;;12.70;96.30;;;;;;7346954;19;108604;-85
2022/06/14 01:27:46;;;;;;;5.50;1.90;;;12.70;96.20;;;;;;7345047;19;108651;-85
2022/06/14 01:30:15;;;;;;;4.60;2.25;;;12.70;96.30;;;;;;7350368;19;108688;-85
2022/06/14 01:32:53;;;;;;;8.68;3.00;;;12.70;96.50;;;;;;7347261;19;108769;-85
2022/06/14 01:35:27;;;;;;;9.88;3.10;;;12.60;96.50;;;;;;7346148;19;112437;-85
2022/06/14 01:37:57;;;;;;;9.32;2.70;;;12.60;97.00;;;;;;7343467;19;108086;-85
2022/06/14 01:40:44;;;;;;;7.47;2.30;;;12.50;97.30;;;;;;7344165;19;107235;-84
2022/06/14 01:43:24;;;;;;;7.75;2.20;;;12.50;97.30;;;;;;7341009;19;111993;-85
2022/06/14 01:45:54;;;;;;;5.07;2.00;;;12.40;97.30;;;;;;7345795;19;107903;-85
2022/06/14 01:48:30;;;;;;;4.72;2.22;;;12.40;97.20;;;;;;7343836;19;110611;-84
2022/06/14 01:53:59;;;;;;;5.22;2.45;;;12.40;97.30;;;;;;7345567;19;108280;-85
2022/06/14 01:56:41;;;;;;;4.88;2.20;;;12.20;97.50;;;;;;7346854;19;109552;-85
2022/06/14 01:59:17;;;;;;;5.35;2.15;;;12.20;97.80;;;;;;7344837;19;110628;-85
2022/06/14 02:02:01;;;;;;;7.07;1.98;;;12.20;97.50;;;;;;7348194;19;108548;-85
2022/06/14 02:04:39;;;;;;;7.03;2.03;;;12.20;97.50;;;;;;7344053;19;109247;-85
2022/06/14 02:07:13;;;;;;;5.88;2.30;;;12.20;97.80;;;;;;7346544;19;108189;-85
2022/06/14 02:09:55;;;;;;;8.38;2.63;;;12.10;98.00;;;;;;7343367;19;108479;-85
2022/06/14 02:12:33;;;;;;;8.50;2.60;;;12.10;98.70;;;;;;7344703;19;112625;-85
2022/06/14 02:15:08;;;;;;;4.75;1.95;;;11.90;99.60;;;;;;7350464;19;108277;-85
2022/06/14 02:17:43;;;;;;;5.30;2.10;;;11.80;99.40;;;;;;7343812;19;108668;-85
2022/06/14 02:20:16;;;;;;;7.07;2.40;;;11.80;99.20;;;;;;7345613;19;110652;-85
2022/06/14 02:22:50;;;;;;;8.32;2.35;;;11.80;99.20;;;;;;7346572;19;108076;-85
2022/06/14 02:25:45;;;;;;;5.40;2.40;;;11.80;99.10;;;;;;7345398;19;109549;-85
2022/06/14 02:28:32;;;;;;;6.07;2.20;;;11.90;98.90;;;;;;7344477;19;108172;-85
2022/06/14 02:31:07;;;;;;;3.90;2.47;;;11.90;98.80;;;;;;7343606;19;108463;-86
2022/06/14 02:33:52;;;;;;;7.30;2.88;;;11.90;98.90;;;;;;7343286;19;109022;-84
2022/06/14 02:36:31;;;;;;;6.30;2.47;;;11.70;99.90;;;;;;7342177;19;107969;-87
2022/06/14 02:39:08;;;;;;;6.63;2.25;;;11.60;99.90;;;;;;7350709;19;107918;-84
2022/06/14 02:41:44;;;;;;;7.30;2.13;;;11.60;99.60;;;;;;7342711;19;108044;-84
2022/06/14 02:44:23;;;;;;;6.55;2.92;;;11.70;99.40;;;;;;7343449;19;108206;-83
2022/06/14 02:47:07;;;;;;;10.00;2.90;;;11.70;99.50;;;;;;7340850;19;108641;-83
2022/06/14 02:49:37;;;;;;;4.97;2.40;;;11.70;99.40;;;;;;7343885;19;107724;-83
2022/06/14 02:52:19;;;;;;;5.57;3.08;;;11.70;99.20;;;;;;7342647;19;107458;-82
2022/06/14 02:55:03;;;;;;;5.70;3.03;;;11.60;99.90;;;;;;7343251;19;107972;-84
2022/06/14 02:57:58;;;;;;;9.35;2.90;;;11.50;99.90;;;;;;7344868;19;108095;-84
2022/06/14 03:00:35;;;;;;;5.13;2.47;;;11.40;99.90;;;;;;7345324;19;110661;-84
2022/06/14 03:03:14;;;;;;;14.90;2.60;;;11.20;99.90;;;;;;7347162;19;108778;-79
2022/06/14 03:05:56;;;;;;;8.57;2.70;;;11.30;99.90;;;;;;7337994;19;108269;-78
2022/06/14 03:08:41;;;;;;;5.65;2.40;;;11.40;99.90;;;;;;7343366;19;110098;-79
2022/06/14 03:11:20;;;;;;;6.78;2.83;;;11.30;99.90;;;;;;7341355;19;110710;-79
2022/06/14 03:13:56;;;;;;;6.40;3.00;;;11.30;99.90;;;;;;7343581;19;107914;-79
2022/06/14 03:16:54;;;;;;;4.82;2.40;;;11.30;99.90;;;;;;7339892;19;108406;-79
2022/06/14 03:19:32;;;;;;;5.65;2.72;;;11.30;99.90;;;;;;7344772;19;107959;-78
2022/06/14 03:22:10;;;;;;;5.35;2.60;;;11.20;99.90;;;;;;7344511;19;108194;-79
2022/06/14 03:25:14;;;;;;;4.47;2.58;;;11.10;99.90;;;;;;7343953;19;108882;-78
2022/06/14 03:28:03;;;;;;;7.00;2.90;;;11.10;99.90;;;;;;7348917;19;107912;-78
2022/06/14 03:30:36;;;;;;;7.32;3.05;;;11.00;99.90;;;;;;7344221;19;108768;-79
2022/06/14 03:33:06;;;;;;;12.80;3.28;;;11.00;99.90;;;;;;7344323;19;109218;-79
2022/06/14 03:35:47;;;;;;;7.18;2.58;;;11.00;99.90;;;;;;7344446;19;108618;-78
2022/06/14 03:38:23;;;;;;;5.28;2.45;;;11.00;99.90;;;;;;7343876;19;108706;-78
2022/06/14 03:40:51;;;;;;;7.57;2.30;;;11.00;99.90;;;;;;7341673;19;108712;-79
2022/06/14 03:43:18;;;;;;;6.85;2.60;;;10.90;99.90;;;;;;7344132;19;108207;-79
2022/06/14 03:46:14;;;;;;;7.40;2.47;;;10.90;99.90;;;;;;7341915;19;110147;-79
2022/06/14 03:48:45;;;;;;;7.28;2.58;;;10.90;99.90;;;;;;7340814;19;107333;-79
2022/06/14 03:51:41;;;;;;;5.68;2.80;;;11.00;99.90;;;;;;7347020;19;108521;-78
2022/06/14 03:54:38;;;;;;;3.83;2.17;;;11.10;99.90;;;;;;7341385;19;107650;-79
2022/06/14 03:57:42;;;;;;;7.50;2.40;;;11.10;99.90;;;;;;7343649;19;108160;-79
2022/06/14 04:00:22;;;;;;;6.93;2.83;;;11.10;99.90;;;;;;7343693;19;109276;-79
2022/06/14 04:02:55;;;;;;;5.20;2.78;;;11.20;99.90;;;;;;7343229;19;107891;-79
2022/06/14 04:05:47;;;;;;;11.32;3.20;;;11.20;99.90;;;;;;7341545;19;108435;-79
2022/06/14 04:08:30;;;;;;;6.15;2.90;;;11.30;99.90;;;;;;7342624;19;109688;-78
2022/06/14 04:11:06;;;;;;;6.82;3.00;;;11.30;99.90;;;;;;7339293;19;107595;-78
2022/06/14 04:13:49;;;;;;;6.57;3.30;;;11.30;99.90;;;;;;7347436;19;108178;-79
2022/06/14 04:16:16;;;;;;;7.78;3.05;;;11.30;99.90;;;;;;7341954;19;107945;-79
2022/06/14 04:18:56;;;;;;;7.05;3.22;;;11.30;99.90;;;;;;7342651;19;109839;-79
2022/06/14 04:21:37;;;;;;;6.00;2.35;;;11.30;99.90;;;;;;7341355;19;109188;-79
2022/06/14 04:24:49;;;;;;;5.28;2.83;;;11.30;99.90;;;;;;7343815;19;107885;-79
2022/06/14 04:27:33;;;;;;;7.03;3.35;;;11.40;99.90;;;;;;7339744;19;109193;-79
2022/06/14 04:30:05;;;;;;;6.95;2.95;;;11.50;99.90;;;;;;7340457;19;109111;-79
2022/06/14 04:32:39;;;;;;;8.38;3.20;;;11.50;99.90;;;;;;7340634;19;110833;-79
2022/06/14 04:35:26;;;;;;;9.07;3.50;;;11.50;99.90;;;;;;7340865;19;107717;-79
2022/06/14 04:38:14;;;;;;;5.32;3.17;;;11.60;99.90;;;;;;7348039;19;108927;-79
2022/06/14 04:41:03;;;;;;;8.20;2.95;;;11.70;99.90;;;;;;7342621;19;107122;-79
2022/06/14 04:43:47;;;;;;;7.60;2.70;;;11.80;99.90;;;;;;7343519;19;109604;-79
2022/06/14 04:46:22;;;;;;;7.90;3.13;;;11.90;99.90;;;;;;7340853;19;109275;-79
2022/06/14 04:49:04;;;;;;;6.82;2.97;;;12.00;99.90;;;;;;7342281;19;110870;-79
2022/06/14 04:51:45;;;;;;;13.23;4.00;;;12.00;99.90;;;;;;7340919;19;108922;-79
2022/06/14 04:54:23;;;;;;;4.40;3.10;;;12.00;99.90;;;;;;7341621;19;107934;-80
2022/06/14 04:57:07;;;;;;;7.38;3.55;;;12.10;99.90;;;;;;7341840;19;108830;-79
2022/06/14 05:00:06;;;;;;;5.68;3.05;;;12.20;99.90;;;;;;7339025;19;109852;-79
2022/06/14 05:02:36;;;;;;;;;;;12.30;99.90;;;;;;7345587;19;110065;-79
2022/06/14 05:05:10;;;;;;;12.70;4.30;;;12.30;99.90;;;;;;7343977;19;108940;-79
2022/06/14 05:07:46;;;;;;;8.05;3.63;;;12.40;99.90;;;;;;7339396;19;106904;-79
2022/06/14 05:10:26;;;;;;;7.90;4.07;;;12.50;99.90;;;;;;7338903;19;108622;-79
2022/06/14 05:13:07;;;;;;;9.50;3.30;;;12.60;99.90;;;;;;7341089;19;109106;-79
2022/06/14 05:15:44;;;;;;;9.02;4.88;;;12.70;99.90;;;;;;7339726;19;108105;-79
2022/06/14 05:18:15;;;;;;;10.63;4.60;;;12.70;99.90;;;;;;7341113;19;107772;-79
2022/06/14 05:20:57;;;;;;;7.93;4.60;;;12.70;99.90;;;;;;7339081;19;108707;-78
2022/06/14 05:23:28;;;;;;;15.07;5.10;;;12.80;99.90;;;;;;7339506;19;108343;-80
2022/06/14 05:26:18;;;;;;;15.80;5.35;;;12.90;99.90;;;;;;7344761;19;108571;-79
2022/06/14 05:28:48;;;;;;;11.68;4.55;;;13.00;99.90;;;;;;7340482;19;107911;-80
2022/06/14 05:31:29;;;;;;;11.07;5.70;;;13.10;99.90;;;;;;7341829;19;108561;-79
2022/06/14 05:34:08;;;;;;;11.77;6.10;;;13.30;99.90;;;;;;7341041;19;109137;-79
2022/06/14 05:36:59;;;;;;;14.45;5.53;;;13.40;99.90;;;;;;7339133;19;107192;-78
2022/06/14 05:39:51;;;;;;;14.55;7.07;;;13.50;99.90;;;;;;7340637;19;108309;-79
2022/06/14 05:42:21;;;;;;;11.25;6.22;;;13.60;99.90;;;;;;7346901;19;108579;-79
2022/06/14 05:44:55;;;;;;;10.13;6.75;;;13.70;99.90;;;;;;7347809;19;108216;-79
2022/06/14 05:47:40;;;;;;;14.65;6.30;;;13.90;99.90;;;;;;7343672;19;107122;-80
2022/06/14 05:50:12;;;;;;;18.02;6.53;;;14.00;99.90;;;;;;7352590;19;108959;-79
2022/06/14 05:52:54;;;;;;;12.68;6.20;;;14.10;99.90;;;;;;7344756;19;108425;-79
2022/06/14 05:55:46;;;;;;;26.35;5.45;;;14.30;99.90;;;;;;7347588;19;109011;-79
2022/06/14 05:58:33;;;;;;;22.60;6.05;;;14.40;99.90;;;;;;7347061;19;107531;-79
2022/06/14 06:01:11;;;;;;;25.55;5.60;;;14.50;99.90;;;;;;7346513;19;107651;-79
2022/06/14 06:04:00;;;;;;;25.98;5.47;;;14.60;99.90;;;;;;7346824;19;108935;-79
2022/06/14 06:06:32;;;;;;;14.30;5.30;;;14.70;99.90;;;;;;7345433;19;108365;-80
2022/06/14 06:09:07;;;;;;;15.40;4.55;;;14.80;99.90;;;;;;7338777;19;108858;-80
2022/06/14 06:11:44;;;;;;;20.05;6.10;;;14.90;99.90;;;;;;7336693;19;107984;-79
2022/06/14 06:14:20;;;;;;;14.88;4.47;;;15.10;99.90;;;;;;7343642;19;110645;-79
2022/06/14 06:19:46;;;;;;;16.25;4.70;;;15.30;99.90;;;;;;7338730;19;108095;-79
2022/06/14 06:22:37;;;;;;;15.00;4.57;;;15.40;99.90;;;;;;7340135;19;112104;-79
2022/06/14 06:25:19;;;;;;;13.75;4.93;;;15.50;99.90;;;;;;7345644;19;109169;-80
2022/06/14 06:27:52;;;;;;;17.17;5.68;;;15.80;99.90;;;;;;7344134;19;107807;-79
2022/06/14 06:30:31;;;;;;;19.65;5.05;;;16.00;99.90;;;;;;7344999;19;109783;-79
2022/06/14 06:32:58;;;;;;;17.00;4.60;;;16.10;99.90;;;;;;7344851;19;108921;-80
2022/06/14 06:35:34;;;;;;;11.75;4.60;;;16.20;99.90;;;;;;7349419;19;109404;-79
2022/06/14 06:38:31;;;;;;;15.73;4.10;;;16.40;99.90;;;;;;7344374;19;108233;-79
2022/06/14 06:43:59;;;;;;;10.32;2.95;;;16.60;99.90;;;;;;7344788;19;110992;-79
2022/06/14 06:46:37;;;;;;;7.10;2.60;;;16.40;99.90;;;;;;7344521;19;107907;-79
2022/06/14 06:49:09;;;;;;;8.82;2.38;;;16.20;99.90;;;;;;7342940;19;107938;-79
2022/06/14 06:51:47;;;;;;;14.48;2.85;;;16.40;99.90;;;;;;7343957;19;108584;-79
2022/06/14 06:54:30;;;;;;;14.13;2.80;;;16.50;99.90;;;;;;7344945;19;108940;-79
2022/06/14 06:56:59;;;;;;;21.63;3.38;;;16.50;99.90;;;;;;7345111;19;107405;-79
2022/06/14 06:59:38;;;;;;;18.52;2.75;;;16.60;99.90;;;;;;7351064;19;108339;-79
2022/06/14 07:02:46;;;;;;;25.58;2.55;;;16.80;99.80;;;;;;7345011;19;112180;-80
2022/06/14 07:05:16;;;;;;;9.43;2.40;;;17.00;99.20;;;;;;7344021;19;108170;-79
2022/06/14 07:07:49;;;;;;;12.48;2.85;;;17.10;99.30;;;;;;7343377;19;109076;-79
2022/06/14 07:10:23;;;;;;;6.70;1.90;;;17.30;99.20;;;;;;7337847;19;108154;-79
2022/06/14 07:12:53;;;;;;;7.15;2.30;;;17.30;98.60;;;;;;7341156;19;108052;-80
2022/06/14 07:15:27;;;;;;;6.82;1.67;;;17.40;98.40;;;;;;7341269;19;110445;-80
2022/06/14 07:18:06;;;;;;;27.38;2.92;;;17.50;98.20;;;;;;7341566;19;107830;-79
2022/06/14 07:20:44;;;;;;;8.68;2.40;;;17.50;98.20;;;;;;7341592;19;108197;-79
2022/06/14 07:23:31;;;;;;;8.20;2.05;;;17.50;97.10;;;;;;7351236;19;113791;-79
2022/06/14 07:26:29;;;;;;;12.93;2.70;;;17.40;97.30;;;;;;7345365;19;107161;-80
2022/06/14 07:29:17;;;;;;;14.52;2.45;;;17.50;97.30;;;;;;7340622;19;110108;-80
2022/06/14 07:32:07;;;;;;;11.20;2.15;;;17.60;97.60;;;;;;7343069;19;107933;-80
2022/06/14 07:34:35;;;;;;;10.77;2.45;;;17.80;97.70;;;;;;7342476;19;108568;-80
2022/06/14 07:37:31;;;;;;;12.00;2.40;;;17.80;97.20;;;;;;7340818;19;109229;-80
2022/06/14 07:40:14;;;;;;;19.77;2.28;;;17.90;97.00;;;;;;7342481;19;107919;-80
2022/06/14 07:42:45;;;;;;;8.13;1.90;;;17.90;97.30;;;;;;7344545;19;109013;-79
2022/06/14 07:45:31;;;;;;;7.38;1.67;;;18.00;96.90;;;;;;7344835;19;109983;-80
2022/06/14 07:48:39;;;;;;;5.75;1.83;;;18.10;96.70;;;;;;7345992;19;111257;-80
2022/06/14 07:51:15;;;;;;;5.63;1.75;;;18.10;94.90;;;;;;7339445;19;108925;-79
2022/06/14 07:54:04;;;;;;;7.07;1.58;;;18.10;96.40;;;;;;7340921;19;107896;-80
2022/06/14 07:57:07;;;;;;;10.82;1.90;;;18.20;96.00;;;;;;7341656;19;107663;-80
2022/06/14 07:59:45;;;;;;;9.43;1.88;;;18.30;95.20;;;;;;7339286;19;109264;-80
2022/06/14 08:02:15;;;;;;;11.88;1.80;;;18.30;95.80;;;;;;7339164;19;108073;-80
2022/06/14 08:04:56;;;;;;;12.52;1.67;;;18.50;95.80;;;;;;7338788;19;108609;-79
2022/06/14 08:07:24;;;;;;;5.15;1.70;;;18.60;95.20;;;;;;7338353;19;109279;-79
2022/06/14 08:10:04;;;;;;;6.10;1.40;;;18.60;94.80;;;;;;7338739;19;107341;-80
2022/06/14 08:12:37;;;;;;;6.20;1.80;;;18.60;94.90;;;;;;7344876;19;108653;-80
2022/06/14 08:15:23;;;;;;;5.43;1.45;;;18.60;94.10;;;;;;7339651;19;107855;-79
2022/06/14 08:18:12;;;;;;;4.45;1.30;;;18.50;93.90;;;;;;7338747;19;109956;-80
2022/06/14 08:20:55;;;;;;;6.78;1.33;;;18.60;94.90;;;;;;7339150;19;109447;-79
2022/06/14 08:23:40;;;;;;;8.82;1.67;;;18.80;94.60;;;;;;7338284;19;107899;-79
2022/06/14 08:26:18;;;;;;;5.15;1.60;;;18.80;93.40;;;;;;7343140;19;108844;-80
2022/06/14 08:28:51;;;;;;;6.95;1.60;;;18.90;94.60;;;;;;7342851;19;108889;-79
2022/06/14 08:31:40;;;;;;;10.48;1.52;;;18.90;94.10;;;;;;7343659;19;108995;-79
2022/06/14 08:34:12;;;;;;;4.35;1.80;;;18.90;95.00;;;;;;7347551;19;108483;-80
2022/06/14 08:36:53;;;;;;;7.60;1.85;;;19.00;94.00;;;;;;7341588;19;107305;-80
2022/06/14 08:39:37;;;;;;;5.30;1.33;;;19.20;94.80;;;;;;7341376;19;108341;-80
2022/06/14 08:42:26;;;;;;;10.73;1.60;;;19.30;94.30;;;;;;7343499;19;108899;-79
2022/06/14 08:44:56;;;;;;;10.27;1.75;;;19.40;94.10;;;;;;7342636;19;108128;-80
2022/06/14 08:48:08;;;;;;;4.32;1.30;;;19.40;94.30;;;;;;7340694;19;108265;-80
2022/06/14 08:51:11;;;;;;;9.23;1.40;;;19.40;92.70;;;;;;7343978;19;109520;-80
2022/06/14 08:54:21;;;;;;;10.90;1.50;;;19.30;94.10;;;;;;7342270;19;108168;-80
2022/06/14 08:57:24;;;;;;;9.35;1.10;;;19.50;93.70;;;;;;7337956;19;108319;-80
2022/06/14 09:00:05;;;;;;;4.53;1.20;;;19.50;91.40;;;;;;7342639;19;108937;-80
2022/06/14 09:02:42;;;;;;;3.65;0.98;;;19.40;92.80;;;;;;7335444;19;108152;-80
2022/06/14 09:05:27;;;;;;;27.40;2.08;;;19.50;92.40;;;;;;7336948;19;108870;-80
2022/06/14 09:08:12;;;;;;;3.97;1.17;;;19.60;93.10;;;;;;7335588;19;108423;-80
2022/06/14 09:10:57;;;;;;;7.15;1.35;;;19.70;92.40;;;;;;7336607;19;108082;-79
2022/06/14 09:13:46;;;;;;;9.80;1.77;;;19.80;93.30;;;;;;7338439;19;109165;-80
2022/06/14 09:16:40;;;;;;;3.78;1.05;;;20.00;92.80;;;;;;7343239;19;107220;-80
2022/06/14 09:19:30;;;;;;;8.95;1.15;;;20.20;91.70;;;;;;7339570;19;109195;-80
2022/06/14 09:22:14;;;;;;;6.72;1.30;;;20.20;92.00;;;;;;7345653;19;109081;-80
2022/06/14 09:25:06;;;;;;;6.72;1.48;;;20.20;90.80;;;;;;7349666;19;108293;-79
2022/06/14 09:28:10;;;;;;;6.43;1.20;;;20.20;91.70;;;;;;7343237;19;109138;-79
2022/06/14 09:30:49;;;;;;;6.22;1.42;;;20.30;90.60;;;;;;7345219;19;108315;-80
2022/06/14 09:33:41;;;;;;;6.30;1.33;;;20.30;90.10;;;;;;7344792;19;108385;-80
2022/06/14 09:36:14;;;;;;;5.72;1.23;;;20.20;90.70;;;;;;7345167;19;109008;-80
2022/06/14 09:38:48;;;;;;;6.43;1.20;;;20.30;90.00;;;;;;7347789;19;108343;-80
2022/06/14 09:41:33;;;;;;;13.68;1.75;;;20.30;90.50;;;;;;7346814;19;111876;-80
2022/06/14 09:44:19;;;;;;;7.63;1.08;;;20.50;91.80;;;;;;7348392;19;108915;-80
2022/06/14 09:46:58;;;;;;;6.50;1.20;;;20.70;90.30;;;;;;7347789;19;110493;-79
2022/06/14 09:49:47;;;;;;;10.55;1.50;;;20.60;90.30;;;;;;7352437;19;109311;-80
2022/06/14 09:52:51;;;;;;;5.35;1.10;;;20.70;91.30;;;;;;7348951;19;112165;-80
2022/06/14 09:55:43;;;;;;;21.33;1.58;;;20.90;89.80;;;;;;7347736;19;108552;-80
2022/06/14 09:58:39;;;;;;;6.68;1.30;;;21.00;90.80;;;;;;7347434;19;109163;-80
2022/06/14 10:01:34;;;;;;;12.30;1.00;;;21.00;90.30;;;;;;7347936;19;108075;-80
2022/06/14 10:04:19;;;;;;;3.75;1.20;;;21.10;90.40;;;;;;7342862;19;108865;-80
2022/06/14 10:07:13;;;;;;;3.47;1.00;;;21.00;87.40;;;;;;7348147;19;109728;-80
2022/06/14 10:09:58;;;;;;;4.43;0.98;;;20.80;87.80;;;;;;7347424;19;107955;-79
2022/06/14 10:12:36;;;;;;;6.25;0.95;;;20.90;89.50;;;;;;7347741;19;108520;-80
2022/06/14 10:15:15;;;;;;;9.82;1.30;;;21.10;90.20;;;;;;7352164;19;108937;-80
2022/06/14 10:17:49;;;;;;;7.35;1.10;;;21.20;88.60;;;;;;7345628;19;111866;-79
2022/06/14 10:20:52;;;;;;;3.97;1.10;;;21.30;90.00;;;;;;7345622;19;109015;-80
2022/06/14 10:23:37;;;;;;;15.77;1.60;;;21.50;90.00;;;;;;7345232;19;108329;-80
2022/06/14 10:29:35;;;;;;;17.45;1.50;;;21.40;88.50;;;;;;7344412;19;108864;-80
2022/06/14 10:32:24;;;;;;;3.88;1.42;;;21.50;88.70;;;;;;7346601;19;107979;-80
2022/06/14 10:35:25;;;;;;;3.88;1.25;;;21.50;84.50;;;;;;7345556;19;108393;-79
2022/06/14 10:38:20;;;;;;;4.63;1.30;;;21.60;87.80;;;;;;7346440;19;112072;-80
2022/06/14 10:41:03;;;;;;;10.15;1.40;;;21.80;87.70;;;;;;7351573;19;107901;-79
2022/06/14 10:43:53;;;;;;;4.40;1.17;;;21.90;86.00;;;;;;7346097;19;111897;-80
2022/06/14 10:46:29;;;;;;;7.47;0.90;;;21.70;85.00;;;;;;7346701;19;107973;-80
2022/06/14 10:49:17;;;;;;;10.27;1.30;;;21.70;87.90;;;;;;7341566;19;108255;-80
2022/06/14 10:51:51;;;;;;;4.97;1.23;;;21.70;83.20;;;;;;7344555;19;111897;-79
2022/06/14 10:55:02;;;;;;;7.55;1.20;;;21.60;84.20;;;;;;7345758;19;108348;-79
2022/06/14 10:57:48;;;;;;;6.07;1.17;;;21.70;85.50;;;;;;7344684;19;108501;-80
2022/06/14 11:00:45;;;;;;;4.65;1.20;;;21.70;81.00;;;;;;7345649;19;110771;-80
2022/06/14 11:03:34;;;;;;;3.30;1.10;;;21.60;83.80;;;;;;7349629;19;108362;-80
2022/06/14 11:06:08;;;;;;;3.90;1.20;;;21.40;81.50;;;;;;7345418;19;109282;-79
2022/06/14 11:08:41;;;;;;;12.85;1.80;;;21.60;84.80;;;;;;7342683;19;108374;-81
2022/06/14 11:11:11;;;;;;;14.65;1.50;;;21.90;87.20;;;;;;7344082;19;111121;-80
2022/06/14 11:13:48;;;;;;;5.28;1.27;;;22.00;82.60;;;;;;7346212;19;108890;-81
2022/06/14 11:16:26;;;;;;;4.35;0.95;;;22.20;86.50;;;;;;7344860;19;107205;-80
2022/06/14 11:19:35;;;;;;;5.18;1.20;;;22.30;84.30;;;;;;7346334;19;107732;-83
2022/06/14 11:22:43;;;;;;;4.45;1.30;;;22.50;83.90;;;;;;7346275;19;109523;-83
2022/06/14 11:25:41;;;;;;;6.88;1.65;;;22.50;81.00;;;;;;7343612;19;107937;-81
2022/06/14 11:28:14;;;;;;;5.47;1.48;;;22.30;81.80;;;;;;7348769;19;108467;-84
2022/06/14 11:31:03;;;;;;;8.45;1.55;;;22.30;83.20;;;;;;7344545;19;107998;-82
2022/06/14 11:33:54;;;;;;;7.45;1.52;;;22.50;82.70;;;;;;7343876;19;108323;-84
2022/06/14 11:36:38;;;;;;;4.10;1.10;;;22.50;80.80;;;;;;7343437;19;107952;-83
2022/06/14 11:39:29;;;;;;;4.75;1.40;;;22.40;82.90;;;;;;7342675;19;107968;-83
2022/06/14 11:42:03;;;;;;;7.03;1.50;;;22.50;83.20;;;;;;7343460;19;107951;-81
2022/06/14 11:44:59;;;;;;;10.93;1.30;;;22.70;81.10;;;;;;7344465;19;112626;-82
2022/06/14 11:47:35;;;;;;;8.27;1.60;;;22.90;80.80;;;;;;7340843;19;107961;-82
2022/06/14 11:50:27;;;;;;;8.03;1.90;;;23.00;80.90;;;;;;7341079;19;108446;-82
2022/06/14 11:53:25;;;;;;;5.22;1.55;;;23.00;81.20;;;;;;7348703;19;108123;-82
2022/06/14 11:56:10;;;;;;;19.95;2.10;;;23.20;79.20;;;;;;7339092;19;108732;-83
2022/06/14 11:59:07;;;;;;;6.45;1.15;;;23.30;81.10;;;;;;7339683;19;109028;-82
2022/06/14 12:01:53;;;;;;;5.32;1.50;;;23.50;79.40;;;;;;7338826;19;108797;-83
2022/06/14 12:05:07;;;;;;;7.53;1.30;;;23.60;79.30;;;;;;7337012;19;110105;-82
2022/06/14 12:07:44;;;;;;;2.65;1.15;;;23.60;77.00;;;;;;7338816;19;109247;-82
2022/06/14 12:10:46;;;;;;;7.38;1.60;;;23.60;77.60;;;;;;7338344;19;107837;-82
2022/06/14 12:13:28;;;;;;;4.88;1.40;;;23.80;78.20;;;;;;7338222;19;108656;-82
2022/06/14 12:16:19;;;;;;;3.97;1.40;;;23.80;77.30;;;;;;7337908;19;109674;-82
2022/06/14 12:19:00;;;;;;;7.35;1.40;;;24.10;77.20;;;;;;7342548;19;107951;-82
2022/06/14 12:21:37;;;;;;;3.03;1.20;;;24.30;74.30;;;;;;7338424;19;109530;-83
2022/06/14 12:24:09;;;;;;;11.18;1.30;;;24.40;77.30;;;;;;7337821;19;109067;-83
2022/06/14 12:26:48;;;;;;;21.33;2.20;;;24.60;76.80;;;;;;7338635;19;108252;-83
2022/06/14 12:29:33;;;;;;;4.53;1.45;;;24.60;75.20;;;;;;7337188;19;107997;-81
2022/06/14 12:32:03;;;;;;;5.57;1.27;;;24.70;70.30;;;;;;7336772;19;108392;-85
2022/06/14 12:35:06;;;;;;;5.10;1.52;;;25.00;72.80;;;;;;7341042;19;107612;-84
2022/06/14 12:37:50;;;;;;;6.97;1.38;;;25.10;68.60;;;;;;7341499;19;109290;-82
2022/06/14 12:40:41;;;;;;;3.75;1.15;;;25.10;67.50;;;;;;7339952;19;108318;-82
2022/06/14 12:43:20;;;;;;;21.42;1.88;;;25.20;68.00;;;;;;7348460;19;107857;-81
2022/06/14 12:45:52;;;;;;;7.82;2.10;;;25.30;70.00;;;;;;7341483;19;108381;-83
2022/06/14 12:48:45;;;;;;;6.22;1.90;;;25.40;69.20;;;;;;7342016;19;108421;-82
2022/06/14 12:51:30;;;;;;;5.35;1.50;;;25.50;71.00;;;;;;7349816;19;109167;-82
2022/06/14 12:54:10;;;;;;;5.53;1.60;;;25.60;67.90;;;;;;7349316;19;108282;-82
2022/06/14 12:56:54;;;;;;;4.35;1.05;;;25.70;70.80;;;;;;7347422;19;108637;-83
2022/06/14 12:59:59;;;;;;;8.27;1.33;;;25.80;67.60;;;;;;7345762;19;109105;-82
2022/06/14 13:02:34;;;;;;;4.00;1.30;;;26.00;68.30;;;;;;7348744;19;108266;-82
2022/06/14 13:05:12;;;;;;;8.52;1.20;;;26.00;68.60;;;;;;7348043;19;108592;-82
2022/06/14 13:08:00;;;;;;;3.40;1.08;;;26.40;69.10;;;;;;7353412;19;108951;-82
2022/06/14 13:10:30;;;;;;;2.80;0.77;;;26.50;63.20;;;;;;7344007;19;107235;-83
2022/06/14 13:13:26;;;;;;;10.60;0.88;;;26.20;62.40;;;;;;7347652;19;109205;-83
2022/06/14 13:16:04;;;;;;;7.78;0.95;;;26.20;62.30;;;;;;7348549;19;108828;-82
2022/06/14 13:18:54;;;;;;;4.38;0.85;;;26.30;62.00;;;;;;7346726;19;108257;-82
2022/06/14 13:21:51;;;;;;;7.88;1.17;;;26.40;61.20;;;;;;7347940;19;109177;-82
2022/06/14 13:24:21;;;;;;;10.05;1.08;;;26.60;61.90;;;;;;7348571;19;108291;-83
2022/06/14 13:27:05;;;;;;;15.23;1.40;;;26.60;64.60;;;;;;7347862;19;108145;-83
2022/06/14 13:29:43;;;;;;;6.53;1.05;;;26.70;62.10;;;;;;7352780;19;109354;-82
2022/06/14 13:32:38;;;;;;;3.72;1.08;;;26.70;60.60;;;;;;7345745;19;108514;-83
2022/06/14 13:35:26;;;;;;;2.58;0.88;;;26.50;60.20;;;;;;7344286;19;109336;-82
2022/06/14 13:37:57;;;;;;;3.38;0.90;;;26.50;62.60;;;;;;7345129;19;108109;-81
2022/06/14 13:40:40;;;;;;;3.83;0.93;;;26.50;58.20;;;;;;7342889;19;111398;-81
2022/06/14 13:43:19;;;;;;;10.93;0.88;;;26.50;59.20;;;;;;7345577;19;112197;-82
2022/06/14 13:46:04;;;;;;;5.40;0.80;;;27.00;60.20;;;;;;7345149;19;108529;-83
2022/06/14 13:48:43;;;;;;;3.13;0.90;;;27.20;55.40;;;;;;7345474;19;109725;-83
2022/06/14 13:51:44;;;;;;;4.10;1.02;;;27.20;58.10;;;;;;7346372;19;109183;-83
2022/06/14 13:54:49;;;;;;;5.50;1.05;;;27.20;54.00;;;;;;7351479;19;107782;-83
2022/06/14 13:57:47;;;;;;;6.40;1.23;;;26.70;56.50;;;;;;7348459;19;109004;-84
2022/06/14 14:00:33;;;;;;;15.10;1.27;;;26.70;56.60;;;;;;7344751;19;107812;-83
2022/06/14 14:03:33;;;;;;;8.90;0.98;;;26.80;58.40;;;;;;7345759;19;108435;-83